sensor_id;sensor_type;location;lat;lon;timestamp;P1;durP1;ratioP1;P2;durP2;ratioP2
39324;SDS011;25037;49.488;9.900;2023-03-23T00:00:53;7.05;;;3.13;;
39324;SDS011;25037;49.488;9.900;2023-03-23T00:03:20;5.40;;;2.92;;
39324;SDS011;25037;49.488;9.900;2023-03-23T00:05:46;5.78;;;3.20;;
39324;SDS011;25037;49.488;9.900;2023-03-23T00:08:18;5.80;;;3.20;;
39324;SDS011;25037;49.488;9.900;2023-03-23T00:10:48;5.53;;;3.10;;
39324;SDS011;25037;49.488;9.900;2023-03-23T00:13:17;6.13;;;3.28;;
39324;SDS011;25037;49.488;9.900;2023-03-23T00:15:45;4.80;;;3.28;;
39324;SDS011;25037;49.488;9.900;2023-03-23T00:18:13;5.90;;;3.15;;
39324;SDS011;25037;49.488;9.900;2023-03-23T00:20:49;8.63;;;3.58;;
39324;SDS011;25037;49.488;9.900;2023-03-23T00:23:17;5.80;;;3.50;;
39324;SDS011;25037;49.488;9.900;2023-03-23T00:25:44;6.95;;;3.58;;
39324;SDS011;25037;49.488;9.900;2023-03-23T00:28:11;5.82;;;3.60;;
39324;SDS011;25037;49.488;9.900;2023-03-23T00:30:38;5.80;;;3.63;;
39324;SDS011;25037;49.488;9.900;2023-03-23T00:33:04;6.20;;;3.80;;
39324;SDS011;25037;49.488;9.900;2023-03-23T00:35:29;6.95;;;4.55;;
39324;SDS011;25037;49.488;9.900;2023-03-23T00:37:56;6.72;;;4.43;;
39324;SDS011;25037;49.488;9.900;2023-03-23T00:40:23;5.97;;;4.03;;
39324;SDS011;25037;49.488;9.900;2023-03-23T00:42:49;6.28;;;3.67;;
39324;SDS011;25037;49.488;9.900;2023-03-23T00:45:15;5.93;;;3.60;;
39324;SDS011;25037;49.488;9.900;2023-03-23T00:47:41;7.88;;;4.32;;
39324;SDS011;25037;49.488;9.900;2023-03-23T00:50:11;5.95;;;3.75;;
39324;SDS011;25037;49.488;9.900;2023-03-23T00:52:38;6.95;;;3.92;;
39324;SDS011;25037;49.488;9.900;2023-03-23T00:55:07;6.10;;;4.70;;
39324;SDS011;25037;49.488;9.900;2023-03-23T00:57:33;8.40;;;4.85;;
39324;SDS011;25037;49.488;9.900;2023-03-23T00:59:58;6.72;;;4.72;;
39324;SDS011;25037;49.488;9.900;2023-03-23T01:02:24;7.97;;;4.95;;
39324;SDS011;25037;49.488;9.900;2023-03-23T01:04:51;8.75;;;4.20;;
39324;SDS011;25037;49.488;9.900;2023-03-23T01:07:20;5.05;;;2.88;;
39324;SDS011;25037;49.488;9.900;2023-03-23T01:09:48;3.58;;;1.58;;
39324;SDS011;25037;49.488;9.900;2023-03-23T01:12:13;3.00;;;1.27;;
39324;SDS011;25037;49.488;9.900;2023-03-23T01:14:40;2.85;;;1.20;;
39324;SDS011;25037;49.488;9.900;2023-03-23T01:17:06;4.05;;;0.93;;
39324;SDS011;25037;49.488;9.900;2023-03-23T01:19:32;2.20;;;1.00;;
39324;SDS011;25037;49.488;9.900;2023-03-23T01:21:58;2.97;;;0.80;;
39324;SDS011;25037;49.488;9.900;2023-03-23T01:24:24;3.88;;;1.00;;
39324;SDS011;25037;49.488;9.900;2023-03-23T01:26:49;3.03;;;1.27;;
39324;SDS011;25037;49.488;9.900;2023-03-23T01:29:15;2.22;;;1.00;;
39324;SDS011;25037;49.488;9.900;2023-03-23T01:31:40;2.85;;;1.10;;
39324;SDS011;25037;49.488;9.900;2023-03-23T01:34:07;3.38;;;1.00;;
39324;SDS011;25037;49.488;9.900;2023-03-23T01:36:35;4.70;;;0.90;;
39324;SDS011;25037;49.488;9.900;2023-03-23T01:39:02;1.85;;;0.70;;
39324;SDS011;25037;49.488;9.900;2023-03-23T01:41:29;2.83;;;0.80;;
39324;SDS011;25037;49.488;9.900;2023-03-23T01:44:03;2.70;;;1.13;;
39324;SDS011;25037;49.488;9.900;2023-03-23T01:46:35;2.55;;;0.95;;
39324;SDS011;25037;49.488;9.900;2023-03-23T01:49:02;2.42;;;0.90;;
39324;SDS011;25037;49.488;9.900;2023-03-23T01:51:49;2.17;;;0.82;;
39324;SDS011;25037;49.488;9.900;2023-03-23T01:54:17;2.28;;;0.85;;
39324;SDS011;25037;49.488;9.900;2023-03-23T01:56:49;2.08;;;0.82;;
39324;SDS011;25037;49.488;9.900;2023-03-23T01:59:19;2.10;;;0.90;;
39324;SDS011;25037;49.488;9.900;2023-03-23T02:01:45;3.00;;;0.90;;
39324;SDS011;25037;49.488;9.900;2023-03-23T02:04:12;3.15;;;1.13;;
39324;SDS011;25037;49.488;9.900;2023-03-23T02:06:40;2.05;;;0.70;;
39324;SDS011;25037;49.488;9.900;2023-03-23T02:09:06;1.50;;;0.70;;
39324;SDS011;25037;49.488;9.900;2023-03-23T02:11:32;2.08;;;0.85;;
39324;SDS011;25037;49.488;9.900;2023-03-23T02:13:58;2.08;;;1.00;;
39324;SDS011;25037;49.488;9.900;2023-03-23T02:16:30;2.05;;;0.60;;
39324;SDS011;25037;49.488;9.900;2023-03-23T02:19:06;1.83;;;0.80;;
39324;SDS011;25037;49.488;9.900;2023-03-23T02:25:07;1.92;;;0.40;;
39324;SDS011;25037;49.488;9.900;2023-03-23T02:27:46;2.27;;;0.80;;
39324;SDS011;25037;49.488;9.900;2023-03-23T02:30:38;1.52;;;0.60;;
39324;SDS011;25037;49.488;9.900;2023-03-23T02:35:52;1.98;;;0.70;;
39324;SDS011;25037;49.488;9.900;2023-03-23T02:41:15;2.55;;;0.90;;
39324;SDS011;25037;49.488;9.900;2023-03-23T02:43:46;1.70;;;0.65;;
39324;SDS011;25037;49.488;9.900;2023-03-23T02:46:14;1.80;;;0.65;;
39324;SDS011;25037;49.488;9.900;2023-03-23T02:48:41;3.22;;;0.70;;
39324;SDS011;25037;49.488;9.900;2023-03-23T02:51:09;2.78;;;0.85;;
39324;SDS011;25037;49.488;9.900;2023-03-23T02:53:37;1.58;;;0.70;;
39324;SDS011;25037;49.488;9.900;2023-03-23T02:56:06;2.20;;;0.63;;
39324;SDS011;25037;49.488;9.900;2023-03-23T02:58:35;2.85;;;0.70;;
39324;SDS011;25037;49.488;9.900;2023-03-23T03:01:45;4.00;;;1.20;;
39324;SDS011;25037;49.488;9.900;2023-03-23T03:04:03;2.70;;;0.95;;
39324;SDS011;25037;49.488;9.900;2023-03-23T03:11:55;3.90;;;0.90;;
39324;SDS011;25037;49.488;9.900;2023-03-23T03:14:27;2.70;;;1.02;;
39324;SDS011;25037;49.488;9.900;2023-03-23T03:17:18;2.58;;;1.00;;
39324;SDS011;25037;49.488;9.900;2023-03-23T03:19:49;2.38;;;0.95;;
39324;SDS011;25037;49.488;9.900;2023-03-23T03:22:18;2.30;;;1.05;;
39324;SDS011;25037;49.488;9.900;2023-03-23T03:24:46;2.83;;;0.82;;
39324;SDS011;25037;49.488;9.900;2023-03-23T03:27:14;2.53;;;0.88;;
39324;SDS011;25037;49.488;9.900;2023-03-23T03:29:43;2.83;;;1.00;;
39324;SDS011;25037;49.488;9.900;2023-03-23T03:32:13;2.13;;;1.00;;
39324;SDS011;25037;49.488;9.900;2023-03-23T03:34:42;1.83;;;0.80;;
39324;SDS011;25037;49.488;9.900;2023-03-23T03:37:07;3.20;;;1.00;;
39324;SDS011;25037;49.488;9.900;2023-03-23T03:39:36;3.20;;;1.38;;
39324;SDS011;25037;49.488;9.900;2023-03-23T03:42:03;2.40;;;1.23;;
39324;SDS011;25037;49.488;9.900;2023-03-23T03:44:30;4.30;;;1.20;;
39324;SDS011;25037;49.488;9.900;2023-03-23T03:46:56;2.30;;;0.93;;
39324;SDS011;25037;49.488;9.900;2023-03-23T03:49:22;2.53;;;1.00;;
39324;SDS011;25037;49.488;9.900;2023-03-23T03:51:47;2.28;;;1.00;;
39324;SDS011;25037;49.488;9.900;2023-03-23T03:54:13;3.47;;;1.15;;
39324;SDS011;25037;49.488;9.900;2023-03-23T03:56:39;2.78;;;1.00;;
39324;SDS011;25037;49.488;9.900;2023-03-23T03:59:06;2.42;;;1.05;;
39324;SDS011;25037;49.488;9.900;2023-03-23T04:01:33;2.50;;;1.05;;
39324;SDS011;25037;49.488;9.900;2023-03-23T04:03:59;2.92;;;1.00;;
39324;SDS011;25037;49.488;9.900;2023-03-23T04:06:25;2.92;;;0.90;;
39324;SDS011;25037;49.488;9.900;2023-03-23T04:08:53;2.67;;;0.85;;
39324;SDS011;25037;49.488;9.900;2023-03-23T04:11:24;2.28;;;1.00;;
39324;SDS011;25037;49.488;9.900;2023-03-23T04:13:50;1.83;;;0.85;;
39324;SDS011;25037;49.488;9.900;2023-03-23T04:16:16;3.05;;;0.95;;
39324;SDS011;25037;49.488;9.900;2023-03-23T04:18:42;6.68;;;1.17;;
39324;SDS011;25037;49.488;9.900;2023-03-23T04:21:07;2.47;;;1.25;;
39324;SDS011;25037;49.488;9.900;2023-03-23T04:23:34;3.20;;;1.17;;
39324;SDS011;25037;49.488;9.900;2023-03-23T04:26:00;3.08;;;1.00;;
39324;SDS011;25037;49.488;9.900;2023-03-23T04:28:28;2.85;;;1.17;;
39324;SDS011;25037;49.488;9.900;2023-03-23T04:30:54;2.03;;;1.10;;
39324;SDS011;25037;49.488;9.900;2023-03-23T04:33:23;4.10;;;1.10;;
39324;SDS011;25037;49.488;9.900;2023-03-23T04:35:54;2.33;;;1.25;;
39324;SDS011;25037;49.488;9.900;2023-03-23T04:38:22;2.30;;;1.00;;
39324;SDS011;25037;49.488;9.900;2023-03-23T04:40:50;2.70;;;1.00;;
39324;SDS011;25037;49.488;9.900;2023-03-23T04:43:26;3.20;;;1.38;;
39324;SDS011;25037;49.488;9.900;2023-03-23T04:45:55;2.97;;;1.33;;
39324;SDS011;25037;49.488;9.900;2023-03-23T04:48:23;2.47;;;1.08;;
39324;SDS011;25037;49.488;9.900;2023-03-23T04:50:49;4.20;;;1.00;;
39324;SDS011;25037;49.488;9.900;2023-03-23T04:53:15;2.63;;;1.20;;
39324;SDS011;25037;49.488;9.900;2023-03-23T04:55:42;2.38;;;1.13;;
39324;SDS011;25037;49.488;9.900;2023-03-23T04:58:08;2.03;;;0.95;;
39324;SDS011;25037;49.488;9.900;2023-03-23T05:00:35;2.53;;;1.17;;
39324;SDS011;25037;49.488;9.900;2023-03-23T05:03:01;3.13;;;1.25;;
39324;SDS011;25037;49.488;9.900;2023-03-23T05:05:28;3.15;;;0.90;;
39324;SDS011;25037;49.488;9.900;2023-03-23T05:07:56;3.10;;;1.50;;
39324;SDS011;25037;49.488;9.900;2023-03-23T05:10:22;2.03;;;1.10;;
39324;SDS011;25037;49.488;9.900;2023-03-23T05:12:48;2.90;;;1.30;;
39324;SDS011;25037;49.488;9.900;2023-03-23T05:15:15;3.20;;;1.85;;
39324;SDS011;25037;49.488;9.900;2023-03-23T05:17:42;2.97;;;1.38;;
39324;SDS011;25037;49.488;9.900;2023-03-23T05:20:15;2.72;;;1.10;;
39324;SDS011;25037;49.488;9.900;2023-03-23T05:22:48;2.72;;;1.30;;
39324;SDS011;25037;49.488;9.900;2023-03-23T05:25:14;2.58;;;1.30;;
39324;SDS011;25037;49.488;9.900;2023-03-23T05:27:41;2.65;;;1.10;;
39324;SDS011;25037;49.488;9.900;2023-03-23T05:30:13;2.93;;;1.30;;
39324;SDS011;25037;49.488;9.900;2023-03-23T05:32:41;2.90;;;1.05;;
39324;SDS011;25037;49.488;9.900;2023-03-23T05:35:10;3.00;;;1.30;;
39324;SDS011;25037;49.488;9.900;2023-03-23T05:37:37;2.90;;;1.50;;
39324;SDS011;25037;49.488;9.900;2023-03-23T05:40:03;2.03;;;1.00;;
39324;SDS011;25037;49.488;9.900;2023-03-23T05:42:32;3.08;;;1.10;;
39324;SDS011;25037;49.488;9.900;2023-03-23T05:44:59;3.13;;;1.30;;
39324;SDS011;25037;49.488;9.900;2023-03-23T05:47:25;2.30;;;1.30;;
39324;SDS011;25037;49.488;9.900;2023-03-23T05:49:51;2.80;;;1.17;;
39324;SDS011;25037;49.488;9.900;2023-03-23T05:52:18;2.45;;;1.10;;
39324;SDS011;25037;49.488;9.900;2023-03-23T05:54:44;2.00;;;0.90;;
39324;SDS011;25037;49.488;9.900;2023-03-23T05:57:10;2.60;;;1.00;;
39324;SDS011;25037;49.488;9.900;2023-03-23T05:59:36;4.10;;;1.27;;
39324;SDS011;25037;49.488;9.900;2023-03-23T06:02:02;2.63;;;0.82;;
39324;SDS011;25037;49.488;9.900;2023-03-23T06:04:28;2.72;;;1.05;;
39324;SDS011;25037;49.488;9.900;2023-03-23T06:06:54;3.83;;;0.93;;
39324;SDS011;25037;49.488;9.900;2023-03-23T06:09:19;3.08;;;0.90;;
39324;SDS011;25037;49.488;9.900;2023-03-23T06:11:46;2.85;;;1.15;;
39324;SDS011;25037;49.488;9.900;2023-03-23T06:14:12;4.25;;;1.40;;
39324;SDS011;25037;49.488;9.900;2023-03-23T06:16:38;6.05;;;1.58;;
39324;SDS011;25037;49.488;9.900;2023-03-23T06:19:04;4.63;;;1.70;;
39324;SDS011;25037;49.488;9.900;2023-03-23T06:21:30;3.80;;;1.63;;
39324;SDS011;25037;49.488;9.900;2023-03-23T06:23:56;4.50;;;1.40;;
39324;SDS011;25037;49.488;9.900;2023-03-23T06:26:25;3.70;;;1.40;;
39324;SDS011;25037;49.488;9.900;2023-03-23T06:28:55;4.22;;;1.35;;
39324;SDS011;25037;49.488;9.900;2023-03-23T06:31:22;4.25;;;1.27;;
39324;SDS011;25037;49.488;9.900;2023-03-23T06:33:49;3.13;;;1.40;;
39324;SDS011;25037;49.488;9.900;2023-03-23T06:36:15;3.40;;;1.15;;
39324;SDS011;25037;49.488;9.900;2023-03-23T06:38:41;2.22;;;0.90;;
39324;SDS011;25037;49.488;9.900;2023-03-23T06:41:07;3.22;;;1.30;;
39324;SDS011;25037;49.488;9.900;2023-03-23T06:43:33;3.88;;;1.38;;
39324;SDS011;25037;49.488;9.900;2023-03-23T06:46:01;2.58;;;0.98;;
39324;SDS011;25037;49.488;9.900;2023-03-23T06:48:27;2.72;;;0.95;;
39324;SDS011;25037;49.488;9.900;2023-03-23T06:50:53;2.42;;;0.90;;
39324;SDS011;25037;49.488;9.900;2023-03-23T06:53:18;2.42;;;1.00;;
39324;SDS011;25037;49.488;9.900;2023-03-23T06:55:45;3.28;;;0.98;;
39324;SDS011;25037;49.488;9.900;2023-03-23T06:58:12;2.67;;;1.15;;
39324;SDS011;25037;49.488;9.900;2023-03-23T07:00:38;2.83;;;0.93;;
39324;SDS011;25037;49.488;9.900;2023-03-23T07:03:05;1.95;;;0.80;;
39324;SDS011;25037;49.488;9.900;2023-03-23T07:05:32;3.72;;;1.15;;
39324;SDS011;25037;49.488;9.900;2023-03-23T07:08:00;2.70;;;1.17;;
39324;SDS011;25037;49.488;9.900;2023-03-23T07:10:27;2.50;;;0.88;;
39324;SDS011;25037;49.488;9.900;2023-03-23T07:12:53;2.13;;;1.10;;
39324;SDS011;25037;49.488;9.900;2023-03-23T07:15:18;2.25;;;0.90;;
39324;SDS011;25037;49.488;9.900;2023-03-23T07:17:44;3.55;;;1.10;;
39324;SDS011;25037;49.488;9.900;2023-03-23T07:20:10;2.28;;;0.90;;
39324;SDS011;25037;49.488;9.900;2023-03-23T07:22:36;2.67;;;0.85;;
39324;SDS011;25037;49.488;9.900;2023-03-23T07:25:03;1.88;;;0.70;;
39324;SDS011;25037;49.488;9.900;2023-03-23T07:27:29;2.35;;;0.88;;
39324;SDS011;25037;49.488;9.900;2023-03-23T07:29:55;2.38;;;0.90;;
39324;SDS011;25037;49.488;9.900;2023-03-23T07:32:23;2.13;;;1.20;;
39324;SDS011;25037;49.488;9.900;2023-03-23T07:34:49;1.77;;;1.27;;
39324;SDS011;25037;49.488;9.900;2023-03-23T07:37:15;2.20;;;0.75;;
39324;SDS011;25037;49.488;9.900;2023-03-23T07:39:42;2.08;;;0.80;;
39324;SDS011;25037;49.488;9.900;2023-03-23T07:42:07;1.98;;;0.70;;
39324;SDS011;25037;49.488;9.900;2023-03-23T07:44:33;2.67;;;1.05;;
39324;SDS011;25037;49.488;9.900;2023-03-23T07:46:59;3.00;;;1.00;;
39324;SDS011;25037;49.488;9.900;2023-03-23T07:49:25;1.73;;;0.80;;
39324;SDS011;25037;49.488;9.900;2023-03-23T07:51:51;1.92;;;0.90;;
39324;SDS011;25037;49.488;9.900;2023-03-23T07:54:17;2.08;;;0.90;;
39324;SDS011;25037;49.488;9.900;2023-03-23T07:56:43;2.08;;;0.80;;
39324;SDS011;25037;49.488;9.900;2023-03-23T07:59:10;4.28;;;1.23;;
39324;SDS011;25037;49.488;9.900;2023-03-23T08:01:37;2.20;;;0.80;;
39324;SDS011;25037;49.488;9.900;2023-03-23T08:04:04;2.30;;;0.85;;
39324;SDS011;25037;49.488;9.900;2023-03-23T08:06:31;2.53;;;0.80;;
39324;SDS011;25037;49.488;9.900;2023-03-23T08:08:58;1.55;;;0.77;;
39324;SDS011;25037;49.488;9.900;2023-03-23T08:13:58;2.22;;;1.00;;
39324;SDS011;25037;49.488;9.900;2023-03-23T08:16:23;2.92;;;0.95;;
39324;SDS011;25037;49.488;9.900;2023-03-23T08:18:50;1.92;;;0.80;;
39324;SDS011;25037;49.488;9.900;2023-03-23T08:21:16;1.83;;;0.95;;
39324;SDS011;25037;49.488;9.900;2023-03-23T08:23:42;2.25;;;0.85;;
39324;SDS011;25037;49.488;9.900;2023-03-23T08:26:08;3.33;;;0.80;;
39324;SDS011;25037;49.488;9.900;2023-03-23T08:28:35;4.30;;;1.10;;
39324;SDS011;25037;49.488;9.900;2023-03-23T08:31:08;1.75;;;0.82;;
39324;SDS011;25037;49.488;9.900;2023-03-23T08:33:36;2.17;;;0.85;;
39324;SDS011;25037;49.488;9.900;2023-03-23T08:36:02;2.67;;;0.88;;
39324;SDS011;25037;49.488;9.900;2023-03-23T08:38:28;2.00;;;0.90;;
39324;SDS011;25037;49.488;9.900;2023-03-23T08:40:58;3.42;;;1.10;;
39324;SDS011;25037;49.488;9.900;2023-03-23T08:43:29;3.33;;;1.27;;
39324;SDS011;25037;49.488;9.900;2023-03-23T08:45:57;7.07;;;2.75;;
39324;SDS011;25037;49.488;9.900;2023-03-23T08:48:22;2.30;;;1.20;;
39324;SDS011;25037;49.488;9.900;2023-03-23T08:50:48;2.38;;;1.23;;
39324;SDS011;25037;49.488;9.900;2023-03-23T08:53:15;2.75;;;1.08;;
39324;SDS011;25037;49.488;9.900;2023-03-23T08:55:41;2.83;;;0.93;;
39324;SDS011;25037;49.488;9.900;2023-03-23T08:58:07;2.13;;;1.08;;
39324;SDS011;25037;49.488;9.900;2023-03-23T09:00:34;3.97;;;1.23;;
39324;SDS011;25037;49.488;9.900;2023-03-23T09:03:00;2.88;;;1.30;;
39324;SDS011;25037;49.488;9.900;2023-03-23T09:05:27;2.33;;;0.95;;
39324;SDS011;25037;49.488;9.900;2023-03-23T09:07:54;2.00;;;1.05;;
39324;SDS011;25037;49.488;9.900;2023-03-23T09:10:23;3.75;;;0.88;;
39324;SDS011;25037;49.488;9.900;2023-03-23T09:12:53;2.95;;;0.82;;
39324;SDS011;25037;49.488;9.900;2023-03-23T09:15:20;2.97;;;0.90;;
39324;SDS011;25037;49.488;9.900;2023-03-23T09:17:47;4.07;;;1.13;;
39324;SDS011;25037;49.488;9.900;2023-03-23T09:20:16;2.53;;;1.00;;
39324;SDS011;25037;49.488;9.900;2023-03-23T09:22:46;1.58;;;0.90;;
39324;SDS011;25037;49.488;9.900;2023-03-23T09:25:13;4.05;;;1.20;;
39324;SDS011;25037;49.488;9.900;2023-03-23T09:27:41;2.00;;;0.77;;
39324;SDS011;25037;49.488;9.900;2023-03-23T09:30:08;3.55;;;1.08;;
39324;SDS011;25037;49.488;9.900;2023-03-23T09:32:36;3.40;;;1.00;;
39324;SDS011;25037;49.488;9.900;2023-03-23T09:35:03;1.85;;;0.85;;
39324;SDS011;25037;49.488;9.900;2023-03-23T09:37:32;2.17;;;1.00;;
39324;SDS011;25037;49.488;9.900;2023-03-23T09:40:00;4.45;;;1.00;;
39324;SDS011;25037;49.488;9.900;2023-03-23T09:42:39;1.73;;;0.80;;
39324;SDS011;25037;49.488;9.900;2023-03-23T09:45:17;3.15;;;0.90;;
39324;SDS011;25037;49.488;9.900;2023-03-23T09:48:04;2.47;;;0.80;;
39324;SDS011;25037;49.488;9.900;2023-03-23T09:50:45;1.75;;;0.85;;
39324;SDS011;25037;49.488;9.900;2023-03-23T09:53:19;2.25;;;0.60;;
39324;SDS011;25037;49.488;9.900;2023-03-23T09:55:48;2.35;;;1.00;;
39324;SDS011;25037;49.488;9.900;2023-03-23T10:00:53;2.40;;;1.40;;
39324;SDS011;25037;49.488;9.900;2023-03-23T10:03:30;3.33;;;0.90;;
39324;SDS011;25037;49.488;9.900;2023-03-23T10:05:59;1.90;;;0.90;;
39324;SDS011;25037;49.488;9.900;2023-03-23T10:08:26;2.80;;;0.75;;
39324;SDS011;25037;49.488;9.900;2023-03-23T10:17:20;1.77;;;0.82;;
39324;SDS011;25037;49.488;9.900;2023-03-23T10:19:35;2.42;;;0.90;;
39324;SDS011;25037;49.488;9.900;2023-03-23T10:22:09;3.50;;;1.20;;
39324;SDS011;25037;49.488;9.900;2023-03-23T10:24:40;4.40;;;0.90;;
39324;SDS011;25037;49.488;9.900;2023-03-23T10:27:17;2.38;;;0.98;;
39324;SDS011;25037;49.488;9.900;2023-03-23T10:29:50;2.25;;;1.20;;
39324;SDS011;25037;49.488;9.900;2023-03-23T10:32:22;3.95;;;2.00;;
39324;SDS011;25037;49.488;9.900;2023-03-23T10:35:05;2.42;;;1.20;;
39324;SDS011;25037;49.488;9.900;2023-03-23T10:37:38;4.88;;;1.30;;
39324;SDS011;25037;49.488;9.900;2023-03-23T10:40:18;3.67;;;1.10;;
39324;SDS011;25037;49.488;9.900;2023-03-23T10:42:48;3.30;;;1.05;;
39324;SDS011;25037;49.488;9.900;2023-03-23T10:45:19;2.97;;;1.20;;
39324;SDS011;25037;49.488;9.900;2023-03-23T10:52:56;2.72;;;1.00;;
39324;SDS011;25037;49.488;9.900;2023-03-23T10:55:24;2.72;;;1.00;;
39324;SDS011;25037;49.488;9.900;2023-03-23T10:58:04;2.45;;;1.20;;
39324;SDS011;25037;49.488;9.900;2023-03-23T11:00:44;3.22;;;1.55;;
39324;SDS011;25037;49.488;9.900;2023-03-23T11:05:42;2.60;;;1.50;;
39324;SDS011;25037;49.488;9.900;2023-03-23T11:08:13;4.05;;;1.45;;
39324;SDS011;25037;49.488;9.900;2023-03-23T11:10:50;3.50;;;1.83;;
39324;SDS011;25037;49.488;9.900;2023-03-23T11:13:17;3.35;;;1.40;;
39324;SDS011;25037;49.488;9.900;2023-03-23T11:15:45;4.75;;;1.13;;
39324;SDS011;25037;49.488;9.900;2023-03-23T11:18:17;3.70;;;1.33;;
39324;SDS011;25037;49.488;9.900;2023-03-23T11:23:20;2.60;;;1.10;;
39324;SDS011;25037;49.488;9.900;2023-03-23T11:26:03;2.33;;;1.15;;
39324;SDS011;25037;49.488;9.900;2023-03-23T11:28:34;3.42;;;1.20;;
39324;SDS011;25037;49.488;9.900;2023-03-23T11:31:03;2.55;;;1.15;;
39324;SDS011;25037;49.488;9.900;2023-03-23T11:34:32;4.45;;;1.77;;
39324;SDS011;25037;49.488;9.900;2023-03-23T11:37:17;2.53;;;1.10;;
39324;SDS011;25037;49.488;9.900;2023-03-23T11:39:21;2.13;;;1.25;;
39324;SDS011;25037;49.488;9.900;2023-03-23T11:44:15;1.80;;;1.00;;
39324;SDS011;25037;49.488;9.900;2023-03-23T11:46:52;3.80;;;1.23;;
39324;SDS011;25037;49.488;9.900;2023-03-23T11:52:19;2.50;;;1.30;;
39324;SDS011;25037;49.488;9.900;2023-03-23T11:54:56;2.83;;;1.10;;
39324;SDS011;25037;49.488;9.900;2023-03-23T11:57:29;3.05;;;0.90;;
39324;SDS011;25037;49.488;9.900;2023-03-23T11:59:55;2.08;;;1.02;;
39324;SDS011;25037;49.488;9.900;2023-03-23T12:05:26;1.80;;;1.00;;
39324;SDS011;25037;49.488;9.900;2023-03-23T12:07:59;3.10;;;1.05;;
39324;SDS011;25037;49.488;9.900;2023-03-23T12:13:41;1.50;;;0.68;;
39324;SDS011;25037;49.488;9.900;2023-03-23T12:16:24;3.13;;;1.08;;
39324;SDS011;25037;49.488;9.900;2023-03-23T12:21:40;2.67;;;1.00;;
39324;SDS011;25037;49.488;9.900;2023-03-23T12:24:25;2.92;;;0.93;;
39324;SDS011;25037;49.488;9.900;2023-03-23T12:29:26;2.78;;;1.15;;
39324;SDS011;25037;49.488;9.900;2023-03-23T12:32:37;1.70;;;0.77;;
39324;SDS011;25037;49.488;9.900;2023-03-23T12:40:48;1.65;;;0.85;;
39324;SDS011;25037;49.488;9.900;2023-03-23T12:43:44;1.70;;;0.80;;
39324;SDS011;25037;49.488;9.900;2023-03-23T12:46:27;1.55;;;0.80;;
39324;SDS011;25037;49.488;9.900;2023-03-23T12:55:06;2.25;;;0.90;;
39324;SDS011;25037;49.488;9.900;2023-03-23T13:00:46;2.03;;;0.75;;
39324;SDS011;25037;49.488;9.900;2023-03-23T13:03:15;1.98;;;0.93;;
39324;SDS011;25037;49.488;9.900;2023-03-23T13:05:49;1.80;;;0.77;;
39324;SDS011;25037;49.488;9.900;2023-03-23T13:08:31;2.35;;;1.00;;
39324;SDS011;25037;49.488;9.900;2023-03-23T13:11:17;1.85;;;0.82;;
39324;SDS011;25037;49.488;9.900;2023-03-23T13:13:54;2.60;;;0.60;;
39324;SDS011;25037;49.488;9.900;2023-03-23T13:16:43;2.65;;;0.63;;
39324;SDS011;25037;49.488;9.900;2023-03-23T13:22:19;1.45;;;0.50;;
39324;SDS011;25037;49.488;9.900;2023-03-23T13:27:22;2.75;;;0.70;;
39324;SDS011;25037;49.488;9.900;2023-03-23T13:29:50;1.15;;;0.60;;
39324;SDS011;25037;49.488;9.900;2023-03-23T13:32:17;1.77;;;0.70;;
39324;SDS011;25037;49.488;9.900;2023-03-23T13:34:44;2.05;;;0.90;;
39324;SDS011;25037;49.488;9.900;2023-03-23T13:47:21;1.00;;;0.38;;
39324;SDS011;25037;49.488;9.900;2023-03-23T13:49:57;2.00;;;0.70;;
39324;SDS011;25037;49.488;9.900;2023-03-23T13:57:51;2.80;;;0.85;;
39324;SDS011;25037;49.488;9.900;2023-03-23T14:10:49;1.75;;;0.70;;
39324;SDS011;25037;49.488;9.900;2023-03-23T14:13:25;2.22;;;0.98;;
39324;SDS011;25037;49.488;9.900;2023-03-23T14:16:04;2.58;;;0.90;;
39324;SDS011;25037;49.488;9.900;2023-03-23T14:18:40;2.03;;;0.60;;
39324;SDS011;25037;49.488;9.900;2023-03-23T14:21:15;1.60;;;0.65;;
39324;SDS011;25037;49.488;9.900;2023-03-23T14:23:42;2.03;;;0.75;;
39324;SDS011;25037;49.488;9.900;2023-03-23T14:26:12;3.80;;;0.88;;
39324;SDS011;25037;49.488;9.900;2023-03-23T14:28:43;1.30;;;0.60;;
39324;SDS011;25037;49.488;9.900;2023-03-23T14:31:14;3.83;;;0.88;;
39324;SDS011;25037;49.488;9.900;2023-03-23T14:33:50;2.30;;;0.80;;
39324;SDS011;25037;49.488;9.900;2023-03-23T14:36:20;1.20;;;0.60;;
39324;SDS011;25037;49.488;9.900;2023-03-23T14:38:54;2.15;;;0.70;;
39324;SDS011;25037;49.488;9.900;2023-03-23T14:41:23;1.83;;;0.80;;
39324;SDS011;25037;49.488;9.900;2023-03-23T14:43:49;1.70;;;0.70;;
39324;SDS011;25037;49.488;9.900;2023-03-23T14:46:15;1.88;;;0.60;;
39324;SDS011;25037;49.488;9.900;2023-03-23T14:48:41;1.45;;;0.60;;
39324;SDS011;25037;49.488;9.900;2023-03-23T14:51:07;2.92;;;1.05;;
39324;SDS011;25037;49.488;9.900;2023-03-23T14:53:43;2.00;;;0.65;;
39324;SDS011;25037;49.488;9.900;2023-03-23T14:56:11;3.35;;;1.00;;
39324;SDS011;25037;49.488;9.900;2023-03-23T14:58:43;2.80;;;0.73;;
39324;SDS011;25037;49.488;9.900;2023-03-23T15:01:16;3.30;;;0.75;;
39324;SDS011;25037;49.488;9.900;2023-03-23T15:03:52;1.55;;;0.68;;
39324;SDS011;25037;49.488;9.900;2023-03-23T15:06:19;2.95;;;0.63;;
39324;SDS011;25037;49.488;9.900;2023-03-23T15:08:46;2.65;;;0.60;;
39324;SDS011;25037;49.488;9.900;2023-03-23T15:13:44;4.47;;;0.93;;
39324;SDS011;25037;49.488;9.900;2023-03-23T15:16:12;1.88;;;0.90;;
39324;SDS011;25037;49.488;9.900;2023-03-23T15:18:45;3.00;;;1.05;;
39324;SDS011;25037;49.488;9.900;2023-03-23T15:21:21;2.10;;;0.88;;
39324;SDS011;25037;49.488;9.900;2023-03-23T15:26:18;2.05;;;1.08;;
39324;SDS011;25037;49.488;9.900;2023-03-23T15:28:50;2.78;;;1.27;;
39324;SDS011;25037;49.488;9.900;2023-03-23T15:31:55;2.10;;;1.05;;
39324;SDS011;25037;49.488;9.900;2023-03-23T15:34:24;3.47;;;1.20;;
39324;SDS011;25037;49.488;9.900;2023-03-23T15:37:03;4.80;;;1.30;;
39324;SDS011;25037;49.488;9.900;2023-03-23T15:39:30;2.40;;;1.00;;
39324;SDS011;25037;49.488;9.900;2023-03-23T15:41:57;6.22;;;1.30;;
39324;SDS011;25037;49.488;9.900;2023-03-23T15:47:12;3.13;;;1.33;;
39324;SDS011;25037;49.488;9.900;2023-03-23T15:49:40;3.22;;;1.23;;
39324;SDS011;25037;49.488;9.900;2023-03-23T15:52:10;2.53;;;1.27;;
39324;SDS011;25037;49.488;9.900;2023-03-23T15:54:37;5.20;;;1.60;;
39324;SDS011;25037;49.488;9.900;2023-03-23T15:57:02;2.83;;;1.48;;
39324;SDS011;25037;49.488;9.900;2023-03-23T15:59:28;3.40;;;1.35;;
39324;SDS011;25037;49.488;9.900;2023-03-23T16:01:55;3.13;;;1.40;;
39324;SDS011;25037;49.488;9.900;2023-03-23T16:04:22;3.08;;;1.25;;
39324;SDS011;25037;49.488;9.900;2023-03-23T16:06:49;3.17;;;1.33;;
39324;SDS011;25037;49.488;9.900;2023-03-23T16:09:19;2.78;;;1.38;;
39324;SDS011;25037;49.488;9.900;2023-03-23T16:11:46;3.17;;;1.63;;
39324;SDS011;25037;49.488;9.900;2023-03-23T16:14:12;2.50;;;1.20;;
39324;SDS011;25037;49.488;9.900;2023-03-23T16:16:45;3.08;;;1.60;;
39324;SDS011;25037;49.488;9.900;2023-03-23T16:19:16;2.35;;;1.25;;
39324;SDS011;25037;49.488;9.900;2023-03-23T16:21:45;2.25;;;1.50;;
39324;SDS011;25037;49.488;9.900;2023-03-23T16:24:12;3.22;;;1.60;;
39324;SDS011;25037;49.488;9.900;2023-03-23T16:26:38;2.47;;;1.55;;
39324;SDS011;25037;49.488;9.900;2023-03-23T16:29:10;4.57;;;1.40;;
39324;SDS011;25037;49.488;9.900;2023-03-23T16:31:45;4.05;;;1.50;;
39324;SDS011;25037;49.488;9.900;2023-03-23T16:34:12;2.97;;;1.60;;
39324;SDS011;25037;49.488;9.900;2023-03-23T16:36:38;3.22;;;1.55;;
39324;SDS011;25037;49.488;9.900;2023-03-23T16:39:05;2.65;;;1.20;;
39324;SDS011;25037;49.488;9.900;2023-03-23T16:41:31;3.30;;;1.58;;
39324;SDS011;25037;49.488;9.900;2023-03-23T16:43:58;3.85;;;1.83;;
39324;SDS011;25037;49.488;9.900;2023-03-23T16:46:25;3.08;;;1.52;;
39324;SDS011;25037;49.488;9.900;2023-03-23T16:48:52;3.50;;;1.60;;